createdAt,value
2017-09-21T00:00:44.007Z,92.40
2017-09-21T00:03:11.874Z,92.10
2017-09-21T00:05:39.741Z,92.00
2017-09-21T00:08:07.609Z,91.90
2017-09-21T00:10:35.475Z,91.90
2017-09-21T00:13:03.374Z,91.80
2017-09-21T00:15:32.030Z,91.50
2017-09-21T00:17:59.897Z,91.50
2017-09-21T00:20:27.764Z,91.40
2017-09-21T00:22:55.637Z,92.10
2017-09-21T00:25:23.499Z,92.50
2017-09-21T00:27:51.367Z,92.10
2017-09-21T00:30:19.234Z,92.00
2017-09-21T00:32:47.033Z,91.70
2017-09-21T00:35:15.684Z,91.40
2017-09-21T00:37:43.551Z,91.40
2017-09-21T00:40:11.428Z,91.50
2017-09-21T00:42:39.287Z,91.40
2017-09-21T00:45:07.155Z,91.80
2017-09-21T00:47:35.022Z,92.10
2017-09-21T00:50:02.889Z,91.90
2017-09-21T00:52:30.755Z,91.60
2017-09-21T00:54:58.624Z,91.30
2017-09-21T00:57:26.490Z,91.30
2017-09-21T00:59:54.358Z,91.20
2017-09-21T01:02:22.225Z,91.40
2017-09-21T01:04:50.093Z,91.40
2017-09-21T01:07:17.959Z,91.80
2017-09-21T01:09:45.827Z,91.30
2017-09-21T01:12:13.700Z,91.10
2017-09-21T01:14:41.669Z,91.50
2017-09-21T01:17:09.532Z,91.40
2017-09-21T01:19:37.398Z,91.50
2017-09-21T01:22:05.267Z,91.60
2017-09-21T01:24:33.133Z,91.70
2017-09-21T01:27:01.105Z,91.70
2017-09-21T01:29:29.073Z,91.80
2017-09-21T01:31:59.910Z,91.90
2017-09-21T01:34:27.778Z,92.10
2017-09-21T01:36:55.645Z,92.10
2017-09-21T01:39:23.547Z,92.10
2017-09-21T01:41:52.199Z,92.50
2017-09-21T01:44:20.168Z,92.50
2017-09-21T01:46:48.035Z,92.60
2017-09-21T01:49:16.005Z,92.60
2017-09-21T01:51:43.974Z,92.70
2017-09-21T01:54:11.945Z,92.90
2017-09-21T01:56:39.812Z,93.10
2017-09-21T01:59:07.678Z,93.10
2017-09-21T02:01:35.547Z,93.10
2017-09-21T02:04:03.416Z,93.20
2017-09-21T02:06:31.281Z,93.20
2017-09-21T02:08:59.148Z,93.30
2017-09-21T02:11:27.016Z,93.40
2017-09-21T02:13:54.883Z,93.40
2017-09-21T02:16:22.750Z,93.60
2017-09-21T02:18:50.651Z,93.90
2017-09-21T02:21:19.308Z,94.30
2017-09-21T02:23:47.173Z,94.30
2017-09-21T02:26:15.044Z,94.20
2017-09-21T02:28:42.913Z,94.10
2017-09-21T02:31:10.777Z,94.10
2017-09-21T02:33:38.643Z,94.00
2017-09-21T02:36:06.508Z,93.80
2017-09-21T02:38:34.375Z,93.90
2017-09-21T02:41:02.242Z,93.80
2017-09-21T02:43:30.214Z,93.70
2017-09-21T02:45:58.079Z,93.90
2017-09-21T02:48:25.947Z,93.90
2017-09-21T02:50:53.813Z,93.90
2017-09-21T02:53:21.683Z,93.70
2017-09-21T02:55:49.550Z,93.60
2017-09-21T02:58:17.416Z,93.60
2017-09-21T03:00:45.283Z,93.60
2017-09-21T03:03:13.152Z,93.40
2017-09-21T03:05:41.019Z,93.20
2017-09-21T03:08:08.885Z,93.40
2017-09-21T03:10:36.753Z,93.60
2017-09-21T03:13:04.655Z,93.60
2017-09-21T03:15:33.306Z,94.40
2017-09-21T03:18:01.174Z,94.40
2017-09-21T03:20:29.041Z,94.20
2017-09-21T03:22:56.908Z,94.60
2017-09-21T03:25:24.776Z,94.50
2017-09-21T03:27:52.643Z,94.40
2017-09-21T03:30:20.511Z,94.40
2017-09-21T03:32:48.378Z,94.30
2017-09-21T03:35:16.245Z,94.20
2017-09-21T03:37:44.113Z,94.20
2017-09-21T03:40:11.980Z,94.10
2017-09-21T03:42:39.847Z,94.00
2017-09-21T03:45:07.715Z,93.80
2017-09-21T03:47:35.582Z,93.70
2017-09-21T03:50:03.552Z,93.70
2017-09-21T03:52:31.418Z,93.80
2017-09-21T03:54:59.286Z,93.70
2017-09-21T03:57:27.153Z,93.60
2017-09-21T03:59:55.020Z,93.80
2017-09-21T04:02:22.888Z,93.80
2017-09-21T04:04:50.756Z,93.30
2017-09-21T04:07:18.622Z,93.00
2017-09-21T04:09:46.519Z,93.00
2017-09-21T04:12:15.176Z,93.00
2017-09-21T04:14:43.044Z,93.00
2017-09-21T04:17:11.218Z,93.20
2017-09-21T04:19:39.085Z,92.90
2017-09-21T04:22:06.953Z,92.80
2017-09-21T04:24:35.025Z,92.70
2017-09-21T04:27:02.894Z,92.70
2017-09-21T04:29:30.760Z,92.60
2017-09-21T04:31:58.626Z,92.70
2017-09-21T04:34:32.946Z,92.70
2017-09-21T04:37:00.812Z,92.70
2017-09-21T04:39:28.679Z,92.80
2017-09-21T04:41:56.547Z,92.80
2017-09-21T04:44:24.414Z,92.80
2017-09-21T04:46:52.281Z,92.90
2017-09-21T04:49:20.149Z,92.80
2017-09-21T04:51:48.017Z,92.70
2017-09-21T04:54:15.884Z,93.00
2017-09-21T04:56:43.684Z,93.00
2017-09-21T04:59:12.336Z,93.20
2017-09-21T05:01:40.203Z,93.20
2017-09-21T05:04:08.069Z,93.20
2017-09-21T05:06:35.938Z,93.20
2017-09-21T05:09:03.906Z,93.20
2017-09-21T05:11:31.774Z,93.10
2017-09-21T05:13:59.641Z,93.50
2017-09-21T05:16:27.509Z,93.50
2017-09-21T05:18:55.375Z,93.30
2017-09-21T05:21:23.256Z,93.20
2017-09-21T05:23:51.115Z,93.00
2017-09-21T05:26:18.978Z,92.90
2017-09-21T05:28:46.847Z,92.90
2017-09-21T05:31:14.717Z,92.80
2017-09-21T05:33:42.585Z,93.00
2017-09-21T05:36:10.450Z,93.40
2017-09-21T05:38:38.317Z,93.60
2017-09-21T05:41:06.182Z,93.50
2017-09-21T05:43:34.054Z,93.50
2017-09-21T05:46:01.916Z,93.30
2017-09-21T05:48:29.786Z,93.30
2017-09-21T05:50:57.653Z,93.40
2017-09-21T05:53:25.519Z,93.30
2017-09-21T05:55:53.385Z,93.50
2017-09-21T05:58:21.254Z,93.30
2017-09-21T06:00:49.121Z,93.40
2017-09-21T06:03:16.988Z,93.80
2017-09-21T06:05:44.855Z,93.70
2017-09-21T06:08:12.722Z,93.60
2017-09-21T06:10:40.594Z,93.50
2017-09-21T06:13:08.457Z,93.60
2017-09-21T06:15:36.323Z,93.50
2017-09-21T06:18:04.191Z,92.80
2017-09-21T06:20:32.059Z,93.00
2017-09-21T06:22:59.926Z,92.70
2017-09-21T06:25:27.793Z,92.70
2017-09-21T06:27:55.661Z,92.80
2017-09-21T06:30:23.528Z,92.90
2017-09-21T06:32:51.396Z,92.90
2017-09-21T06:35:19.262Z,92.80
2017-09-21T06:37:47.130Z,92.70
2017-09-21T06:40:14.997Z,92.70
2017-09-21T06:42:42.864Z,92.60
2017-09-21T06:45:10.731Z,92.60
2017-09-21T06:47:38.599Z,92.50
2017-09-21T06:50:06.466Z,92.50
2017-09-21T06:52:34.334Z,92.50
2017-09-21T06:55:02.201Z,92.30
2017-09-21T06:57:30.068Z,92.50
2017-09-21T06:59:57.936Z,92.80
2017-09-21T07:02:25.803Z,92.60
2017-09-21T07:04:53.671Z,92.90
2017-09-21T07:07:21.537Z,93.00
2017-09-21T07:09:49.404Z,93.00
2017-09-21T07:12:17.271Z,93.20
2017-09-21T07:14:45.139Z,93.00
2017-09-21T07:17:13.006Z,93.00
2017-09-21T07:19:40.874Z,93.00
2017-09-21T07:22:08.741Z,92.80
2017-09-21T07:24:36.609Z,92.60
2017-09-21T07:27:04.475Z,92.60
2017-09-21T07:29:32.343Z,92.70
2017-09-21T07:32:00.210Z,92.70
2017-09-21T07:34:28.078Z,92.30
2017-09-21T07:36:55.946Z,92.40
2017-09-21T07:39:23.812Z,92.30
2017-09-21T07:41:51.679Z,92.40
2017-09-21T07:44:19.554Z,92.20
2017-09-21T07:46:47.415Z,92.20
2017-09-21T07:49:15.283Z,91.80
2017-09-21T07:51:43.180Z,92.00
2017-09-21T07:54:11.836Z,92.60
2017-09-21T07:56:39.703Z,92.60
2017-09-21T07:59:07.570Z,92.70
2017-09-21T08:01:35.437Z,92.80
2017-09-21T08:04:03.305Z,92.90
2017-09-21T08:06:31.171Z,92.80
2017-09-21T08:08:59.039Z,93.00
2017-09-21T08:11:27.009Z,92.90
2017-09-21T08:13:54.979Z,92.70
2017-09-21T08:16:22.859Z,92.30
2017-09-21T08:18:50.714Z,92.30
2017-09-21T08:21:18.580Z,91.30
2017-09-21T08:23:46.458Z,92.70
2017-09-21T08:26:14.321Z,92.90
2017-09-21T08:28:42.185Z,92.50
2017-09-21T08:31:10.051Z,92.60
2017-09-21T08:33:37.923Z,92.60
2017-09-21T08:36:05.798Z,92.40
2017-09-21T08:38:33.656Z,92.10
2017-09-21T08:41:01.624Z,91.50
2017-09-21T08:43:29.493Z,91.90
2017-09-21T08:45:57.357Z,91.90
2017-09-21T08:48:25.223Z,92.40
2017-09-21T08:50:53.296Z,92.30
2017-09-21T08:53:21.162Z,91.70
2017-09-21T08:55:49.030Z,91.70
2017-09-21T08:58:16.922Z,92.50
2017-09-21T09:00:44.765Z,92.70
2017-09-21T09:03:12.632Z,92.20
2017-09-21T09:05:40.500Z,92.30
2017-09-21T09:08:08.367Z,91.90
2017-09-21T09:10:36.337Z,92.10
2017-09-21T09:13:04.204Z,93.00
2017-09-21T09:15:32.071Z,93.10
2017-09-21T09:17:59.940Z,92.80
2017-09-21T09:20:27.805Z,92.40
2017-09-21T09:22:55.673Z,92.10
2017-09-21T09:25:23.541Z,92.00
2017-09-21T09:27:51.407Z,92.00
2017-09-21T09:30:19.275Z,91.70
2017-09-21T09:32:47.143Z,91.80
2017-09-21T09:35:15.010Z,91.60
2017-09-21T09:37:42.979Z,90.80
2017-09-21T09:40:10.847Z,91.20
2017-09-21T09:42:38.716Z,91.30
2017-09-21T09:45:06.522Z,90.90
2017-09-21T09:47:35.164Z,91.40
2017-09-21T09:50:03.033Z,91.40
2017-09-21T09:52:30.900Z,91.00
2017-09-21T09:54:58.768Z,91.10
2017-09-21T09:57:26.634Z,91.30
2017-09-21T09:59:54.504Z,90.50
2017-09-21T10:02:22.472Z,90.50
2017-09-21T10:04:50.339Z,90.90
2017-09-21T10:07:18.207Z,91.20
2017-09-21T10:09:46.074Z,90.80
2017-09-21T10:12:13.942Z,90.60
2017-09-21T10:14:41.808Z,90.90
2017-09-21T10:17:09.677Z,89.80
2017-09-21T10:19:37.543Z,89.90
2017-09-21T10:22:05.410Z,89.80
2017-09-21T10:24:33.279Z,88.50
2017-09-21T10:27:01.151Z,88.60
2017-09-21T10:29:29.012Z,88.70
2017-09-21T10:31:56.880Z,89.30
2017-09-21T10:34:24.746Z,88.60
2017-09-21T10:36:52.614Z,86.10
2017-09-21T10:39:20.482Z,85.00
2017-09-21T10:41:48.353Z,86.50
2017-09-21T10:44:16.216Z,86.50
2017-09-21T10:46:44.084Z,83.00
2017-09-21T10:49:12.053Z,83.60
2017-09-21T10:51:39.920Z,81.90
2017-09-21T10:54:07.788Z,81.30
2017-09-21T10:56:35.656Z,78.30
2017-09-21T10:59:03.523Z,78.50
2017-09-21T11:01:32.106Z,73.90
2017-09-21T11:03:59.974Z,73.90
2017-09-21T11:06:27.842Z,75.30
2017-09-21T11:08:55.709Z,75.40
2017-09-21T11:11:23.575Z,74.60
2017-09-21T11:13:51.443Z,73.40
2017-09-21T11:16:19.238Z,72.90
2017-09-21T11:18:47.075Z,73.50
2017-09-21T11:21:14.942Z,71.50
2017-09-21T11:23:42.810Z,72.40
2017-09-21T11:26:10.676Z,71.40
2017-09-21T11:28:38.546Z,70.00
2017-09-21T11:31:06.413Z,71.10
2017-09-21T11:33:34.279Z,70.40
2017-09-21T11:36:02.149Z,67.80
2017-09-21T11:38:30.018Z,69.60
2017-09-21T11:40:57.882Z,68.60
2017-09-21T11:43:25.749Z,66.70
2017-09-21T11:45:53.616Z,68.20
2017-09-21T11:48:21.483Z,65.80
2017-09-21T11:50:49.350Z,63.00
2017-09-21T11:53:17.217Z,63.90
2017-09-21T11:55:45.085Z,67.00
2017-09-21T11:58:12.961Z,63.10
2017-09-21T12:00:40.819Z,66.90
2017-09-21T12:03:08.686Z,63.70
2017-09-21T12:05:36.554Z,63.10
2017-09-21T12:08:04.425Z,63.50
2017-09-21T12:10:32.292Z,64.90
2017-09-21T12:13:00.156Z,63.30
2017-09-21T12:15:28.023Z,62.50
2017-09-21T12:17:55.891Z,63.80
2017-09-21T12:20:23.757Z,63.80
2017-09-21T12:22:51.624Z,62.00
2017-09-21T12:25:19.493Z,58.40
2017-09-21T12:27:47.360Z,59.90
2017-09-21T12:30:15.227Z,62.80
2017-09-21T12:32:43.095Z,58.10
2017-09-21T12:35:10.962Z,60.60
2017-09-21T12:37:38.829Z,60.60
2017-09-21T12:40:06.696Z,59.20
2017-09-21T12:42:34.564Z,58.90
2017-09-21T12:45:02.431Z,61.90
2017-09-21T12:47:30.299Z,62.20
2017-09-21T12:49:58.371Z,58.70
2017-09-21T12:52:26.272Z,60.40
2017-09-21T12:54:54.925Z,57.60
2017-09-21T12:57:22.792Z,57.50
2017-09-21T12:59:50.659Z,60.80
2017-09-21T13:02:18.526Z,58.30
2017-09-21T13:04:46.396Z,59.20
2017-09-21T13:07:14.260Z,57.20
2017-09-21T13:09:42.129Z,58.30
2017-09-21T13:12:09.995Z,58.40
2017-09-21T13:14:37.863Z,57.10
2017-09-21T13:17:05.730Z,58.20
2017-09-21T13:19:33.597Z,56.90
2017-09-21T13:22:01.465Z,55.70
2017-09-21T13:24:29.332Z,54.40
2017-09-21T13:26:57.404Z,56.90
2017-09-21T13:29:25.271Z,55.80
2017-09-21T13:31:53.139Z,55.40
2017-09-21T13:34:21.007Z,56.20
2017-09-21T13:36:48.873Z,52.30
2017-09-21T13:39:16.741Z,53.40
2017-09-21T13:41:44.610Z,55.40
2017-09-21T13:44:12.476Z,52.90
2017-09-21T13:46:40.342Z,55.00
2017-09-21T13:49:08.210Z,53.20
2017-09-21T13:51:36.078Z,51.70
2017-09-21T13:54:03.944Z,55.20
2017-09-21T13:56:31.811Z,56.70
2017-09-21T13:58:59.680Z,56.10
2017-09-21T14:01:27.547Z,56.20
2017-09-21T14:03:55.413Z,54.60
2017-09-21T14:06:23.281Z,53.70
2017-09-21T14:08:51.148Z,54.80
2017-09-21T14:11:19.117Z,55.90
2017-09-21T14:13:46.988Z,56.40
2017-09-21T14:16:14.857Z,55.60
2017-09-21T14:18:42.822Z,56.60
2017-09-21T14:21:10.690Z,56.40
2017-09-21T14:23:38.557Z,52.50
2017-09-21T14:26:06.424Z,54.50
2017-09-21T14:28:34.327Z,57.00
2017-09-21T14:31:02.987Z,57.40
2017-09-21T14:33:30.849Z,57.30
2017-09-21T14:35:58.714Z,56.40
2017-09-21T14:38:26.580Z,55.30
2017-09-21T14:40:54.452Z,57.30
2017-09-21T14:43:22.522Z,58.50
2017-09-21T14:45:50.388Z,60.90
2017-09-21T14:48:18.390Z,60.00
2017-09-21T14:50:47.044Z,61.20
2017-09-21T14:53:14.910Z,61.10
2017-09-21T14:55:42.776Z,61.70
2017-09-21T14:58:10.644Z,61.10
2017-09-21T15:00:38.517Z,60.90
2017-09-21T15:03:06.379Z,58.90
2017-09-21T15:05:34.246Z,60.10
2017-09-21T15:08:02.113Z,60.10
2017-09-21T15:10:29.981Z,60.00
2017-09-21T15:12:57.950Z,60.60
2017-09-21T15:15:25.817Z,56.60
2017-09-21T15:17:53.686Z,58.20
2017-09-21T15:20:21.553Z,59.70
2017-09-21T15:22:49.419Z,60.50
2017-09-21T15:25:17.401Z,58.40
2017-09-21T15:27:45.257Z,58.70
2017-09-21T15:30:13.124Z,59.10
2017-09-21T15:32:40.997Z,60.50
2017-09-21T15:35:09.576Z,59.30
2017-09-21T15:37:37.442Z,59.20
2017-09-21T15:40:05.314Z,58.90
2017-09-21T15:42:33.178Z,58.30
2017-09-21T15:45:01.046Z,60.10
2017-09-21T15:47:28.911Z,62.10
2017-09-21T15:49:56.779Z,62.10
2017-09-21T15:52:24.647Z,63.50
2017-09-21T15:54:52.515Z,66.90
2017-09-21T15:57:20.381Z,69.60
2017-09-21T15:59:48.284Z,71.10
2017-09-21T16:02:16.934Z,72.60
2017-09-21T16:04:44.803Z,72.60
2017-09-21T16:07:12.670Z,74.40
2017-09-21T16:09:40.474Z,75.40
2017-09-21T16:12:09.019Z,77.50
2017-09-21T16:14:36.738Z,77.50
2017-09-21T16:17:04.463Z,77.70
2017-09-21T16:19:32.222Z,78.00
2017-09-21T16:21:59.964Z,78.70
2017-09-21T16:24:28.583Z,79.50
2017-09-21T16:26:56.298Z,80.10
2017-09-21T16:29:25.202Z,80.60
2017-09-21T16:31:53.117Z,80.80
2017-09-21T16:34:21.610Z,81.80
2017-09-21T16:36:50.136Z,82.20
2017-09-21T16:39:17.891Z,82.10
2017-09-21T16:41:45.654Z,82.50
2017-09-21T16:44:13.444Z,82.10
2017-09-21T16:46:41.187Z,82.30
2017-09-21T16:49:09.928Z,82.70
2017-09-21T16:51:38.582Z,83.30
2017-09-21T16:54:06.450Z,83.30
2017-09-21T16:56:34.316Z,83.80
2017-09-21T16:59:02.185Z,84.20
2017-09-21T17:01:30.051Z,84.30
2017-09-21T17:03:57.930Z,84.30
2017-09-21T17:06:25.785Z,84.70
2017-09-21T17:08:57.374Z,85.10
2017-09-21T17:11:26.334Z,86.30
2017-09-21T17:13:54.816Z,86.20
2017-09-21T17:16:23.604Z,86.10
2017-09-21T17:18:52.598Z,86.20
2017-09-21T17:21:20.465Z,86.20
2017-09-21T17:23:48.332Z,86.80
2017-09-21T17:26:16.199Z,87.00
2017-09-21T17:28:44.068Z,87.40
2017-09-21T17:31:11.900Z,87.70
2017-09-21T17:33:39.904Z,88.90
2017-09-21T17:36:09.000Z,88.70
2017-09-21T17:38:36.872Z,88.60
2017-09-21T17:41:04.738Z,89.10
2017-09-21T17:43:33.935Z,88.90
2017-09-21T17:46:03.972Z,89.10
2017-09-21T17:48:31.823Z,89.50
2017-09-21T17:50:59.688Z,89.20
2017-09-21T17:53:27.554Z,89.50
2017-09-21T17:55:55.422Z,89.60
2017-09-21T17:58:23.288Z,89.70
2017-09-21T18:00:51.156Z,90.00
2017-09-21T18:03:19.022Z,90.10
2017-09-21T18:05:46.746Z,90.10
2017-09-21T18:08:14.466Z,90.20
2017-09-21T18:10:42.220Z,90.30
2017-09-21T18:13:10.081Z,90.40
2017-09-21T18:15:38.051Z,90.50
2017-09-21T18:18:05.782Z,90.60
2017-09-21T18:20:33.502Z,90.60
2017-09-21T18:23:01.328Z,90.60
2017-09-21T18:25:29.051Z,90.60
2017-09-21T18:27:57.535Z,90.40
2017-09-21T18:30:26.027Z,90.40
2017-09-21T18:32:53.802Z,90.30
2017-09-21T18:35:21.707Z,90.50
2017-09-21T18:37:49.574Z,90.50
2017-09-21T18:40:17.442Z,90.40
2017-09-21T18:42:45.309Z,90.40
2017-09-21T18:45:13.047Z,90.50
2017-09-21T18:47:40.787Z,90.60
2017-09-21T18:50:08.512Z,90.40
2017-09-21T18:52:36.471Z,90.60
2017-09-21T18:55:04.338Z,90.60
2017-09-21T18:57:32.205Z,90.60
2017-09-21T19:00:00.073Z,90.60
2017-09-21T19:02:28.043Z,90.70
2017-09-21T19:04:55.910Z,90.90
2017-09-21T19:07:23.658Z,90.70
2017-09-21T19:09:51.404Z,90.70
2017-09-21T19:12:19.162Z,90.60
2017-09-21T19:14:46.929Z,90.80
2017-09-21T19:17:14.734Z,90.90
2017-09-21T19:19:42.601Z,91.00
2017-09-21T19:22:10.322Z,90.80
2017-09-21T19:24:38.270Z,91.40
2017-09-21T19:27:06.919Z,91.00
2017-09-21T19:29:34.641Z,91.00
2017-09-21T19:32:02.358Z,90.80
2017-09-21T19:34:30.077Z,91.10
2017-09-21T19:36:57.812Z,91.10
2017-09-21T19:39:26.349Z,90.90
2017-09-21T19:41:54.072Z,90.80
2017-09-21T19:44:22.606Z,90.90
2017-09-21T19:46:50.472Z,90.90
2017-09-21T19:49:18.340Z,91.10
2017-09-21T19:51:46.054Z,91.10
2017-09-21T19:54:14.688Z,90.90
2017-09-21T19:56:42.558Z,90.90
2017-09-21T19:59:10.270Z,90.60
2017-09-21T20:01:38.753Z,90.50
2017-09-21T20:04:06.484Z,90.50
2017-09-21T20:06:34.333Z,90.50
2017-09-21T20:09:02.303Z,90.60
2017-09-21T20:11:30.095Z,90.70
2017-09-21T20:13:57.941Z,90.50
2017-09-21T20:16:25.802Z,90.40
2017-09-21T20:18:53.669Z,90.60
2017-09-21T20:21:21.537Z,90.90
2017-09-21T20:23:49.258Z,90.70
2017-09-21T20:26:16.974Z,90.60
2017-09-21T20:28:44.685Z,90.60
2017-09-21T20:31:12.408Z,90.50
2017-09-21T20:33:40.126Z,90.60
2017-09-21T20:36:08.126Z,90.70
2017-09-21T20:38:35.842Z,90.60
2017-09-21T20:41:03.568Z,90.80
2017-09-21T20:43:31.292Z,90.60
2017-09-21T20:45:59.007Z,90.80
2017-09-21T20:48:27.667Z,91.30
2017-09-21T20:50:55.401Z,91.00
2017-09-21T20:53:23.134Z,90.90
2017-09-21T20:55:51.628Z,91.10
2017-09-21T20:58:20.269Z,91.10
2017-09-21T21:00:48.134Z,91.10
2017-09-21T21:03:15.999Z,91.20
2017-09-21T21:05:43.966Z,91.10
2017-09-21T21:08:11.866Z,91.30
2017-09-21T21:10:40.521Z,91.40
2017-09-21T21:13:08.388Z,91.40
2017-09-21T21:15:36.254Z,91.50
2017-09-21T21:18:04.118Z,91.40
2017-09-21T21:20:31.989Z,91.50
2017-09-21T21:22:59.857Z,91.40
2017-09-21T21:25:27.725Z,91.40
2017-09-21T21:27:55.592Z,91.40
2017-09-21T21:30:23.460Z,91.40
2017-09-21T21:32:51.326Z,91.30
2017-09-21T21:37:52.898Z,91.50
2017-09-21T21:40:20.770Z,91.50
2017-09-21T21:42:48.633Z,91.60
2017-09-21T21:45:16.502Z,91.50
2017-09-21T21:47:44.370Z,91.40
2017-09-21T21:50:12.235Z,91.40
2017-09-21T21:52:40.102Z,91.30
2017-09-21T21:55:07.910Z,91.20
2017-09-21T21:57:36.553Z,91.40
2017-09-21T22:00:04.421Z,91.40
2017-09-21T22:02:32.288Z,91.30
2017-09-21T22:05:00.023Z,91.30
2017-09-21T22:07:27.920Z,91.10
2017-09-21T22:09:55.787Z,91.20
2017-09-21T22:12:23.655Z,91.80
2017-09-21T22:14:51.522Z,92.40
2017-09-21T22:17:19.388Z,92.10
2017-09-21T22:19:47.360Z,92.10
2017-09-21T22:22:15.226Z,92.00
2017-09-21T22:24:43.094Z,91.70
2017-09-21T22:27:10.854Z,91.50
2017-09-21T22:29:38.654Z,91.60
2017-09-21T22:32:06.381Z,91.60
2017-09-21T22:34:34.146Z,91.50
2017-09-21T22:37:02.636Z,91.30
2017-09-21T22:39:30.503Z,91.30
2017-09-21T22:41:58.406Z,91.50
2017-09-21T22:44:27.056Z,91.60
2017-09-21T22:46:54.922Z,91.60
2017-09-21T22:49:22.791Z,91.80
2017-09-21T22:51:50.657Z,91.50
2017-09-21T22:54:18.525Z,91.60
2017-09-21T22:56:46.392Z,91.80
2017-09-21T22:59:14.260Z,91.80
2017-09-21T23:01:42.128Z,91.80
2017-09-21T23:04:09.994Z,91.90
2017-09-21T23:06:37.863Z,91.90
2017-09-21T23:09:05.730Z,91.90
2017-09-21T23:11:33.597Z,91.90
2017-09-21T23:14:01.463Z,91.80
2017-09-21T23:16:29.331Z,91.90
2017-09-21T23:18:57.301Z,91.60
2017-09-21T23:21:25.168Z,92.00
2017-09-21T23:23:53.036Z,92.20
2017-09-21T23:26:20.759Z,92.10
2017-09-21T23:28:48.565Z,92.00
2017-09-21T23:31:16.433Z,92.10
2017-09-21T23:33:44.299Z,91.90
2017-09-21T23:36:12.169Z,91.90
2017-09-21T23:38:40.034Z,92.00
2017-09-21T23:41:07.902Z,92.20
2017-09-21T23:43:35.769Z,92.30
2017-09-21T23:46:03.636Z,92.20
2017-09-21T23:48:31.503Z,92.30
2017-09-21T23:50:59.378Z,92.30
2017-09-21T23:53:27.243Z,92.20
2017-09-21T23:55:55.109Z,92.30
2017-09-21T23:58:22.973Z,92.60
